createdAt,value
2022-09-04T00:01:57.543Z,6.00
2022-09-04T00:04:24.491Z,7.50
2022-09-04T00:07:22.372Z,5.50
2022-09-04T00:10:23.724Z,5.30
2022-09-04T00:13:08.478Z,4.80
2022-09-04T00:15:39.705Z,6.70
2022-09-04T00:18:08.535Z,8.40
2022-09-04T00:21:00.301Z,5.90
2022-09-04T00:23:39.404Z,5.70
2022-09-04T00:26:23.558Z,5.40
2022-09-04T00:28:51.531Z,5.90
2022-09-04T00:31:30.462Z,6.20
2022-09-04T00:34:33.253Z,5.40
2022-09-04T00:37:04.548Z,6.00
2022-09-04T00:39:46.448Z,5.80
2022-09-04T00:42:35.163Z,6.40
2022-09-04T00:45:16.558Z,6.10
2022-09-04T00:47:58.664Z,6.80
2022-09-04T00:51:00.129Z,6.50
2022-09-04T00:53:55.237Z,7.80
2022-09-04T00:56:53.515Z,7.20
2022-09-04T00:59:57.635Z,4.80
2022-09-04T01:03:02.470Z,6.90
2022-09-04T01:05:40.690Z,6.30
2022-09-04T01:08:27.979Z,6.90
2022-09-04T01:11:32.344Z,6.20
2022-09-04T01:14:13.530Z,5.30
2022-09-04T01:17:05.162Z,10.00
2022-09-04T01:19:52.696Z,7.20
2022-09-04T01:22:36.233Z,5.50
2022-09-04T01:25:05.850Z,5.80
2022-09-04T01:27:48.261Z,7.00
2022-09-04T01:30:16.843Z,6.90
2022-09-04T01:33:12.054Z,9.50
2022-09-04T01:36:02.352Z,6.30
2022-09-04T01:38:43.638Z,7.20
2022-09-04T01:41:38.371Z,5.10
2022-09-04T01:44:10.002Z,7.40
2022-09-04T01:46:58.867Z,8.10
2022-09-04T01:49:28.992Z,7.00
2022-09-04T01:52:08.131Z,5.40
2022-09-04T01:54:54.335Z,5.60
2022-09-04T01:57:33.471Z,6.20
2022-09-04T02:00:10.352Z,8.00
2022-09-04T02:02:56.537Z,7.40
2022-09-04T02:05:29.859Z,5.40
2022-09-04T02:08:12.163Z,8.10
2022-09-04T02:10:54.601Z,6.40
2022-09-04T02:13:29.711Z,8.10
2022-09-04T02:16:04.578Z,8.30
2022-09-04T02:18:41.535Z,6.00
2022-09-04T02:21:31.940Z,7.20
2022-09-04T02:24:07.898Z,8.70
2022-09-04T02:26:43.045Z,8.50
2022-09-04T02:29:33.285Z,6.50
2022-09-04T02:32:21.795Z,7.00
2022-09-04T02:34:57.757Z,10.50
2022-09-04T02:37:30.848Z,6.00
2022-09-04T02:40:32.618Z,6.70
2022-09-04T02:43:21.585Z,6.50
2022-09-04T02:46:11.367Z,10.70
2022-09-04T02:48:47.630Z,7.30
2022-09-04T02:51:36.499Z,6.70
2022-09-04T02:54:33.446Z,7.20
2022-09-04T02:57:09.604Z,8.00
2022-09-04T02:59:55.499Z,5.00
2022-09-04T03:02:54.698Z,10.30
2022-09-04T03:05:23.798Z,7.10
2022-09-04T03:08:12.763Z,5.60
2022-09-04T03:10:44.316Z,10.40
2022-09-04T03:13:20.992Z,9.10
2022-09-04T03:16:04.547Z,7.50
2022-09-04T03:18:55.837Z,8.60
2022-09-04T03:21:52.712Z,6.30
2022-09-04T03:24:19.665Z,8.20
2022-09-04T03:26:50.952Z,5.90
2022-09-04T03:29:42.556Z,14.20
2022-09-04T03:32:17.045Z,13.80
2022-09-04T03:34:57.853Z,9.30
2022-09-04T03:40:25.541Z,7.10
2022-09-04T03:42:55.490Z,6.80
2022-09-04T03:45:36.336Z,6.80
2022-09-04T03:48:42.094Z,5.90
2022-09-04T03:51:25.939Z,5.80
2022-09-04T03:54:08.284Z,6.00
2022-09-04T03:56:41.453Z,12.30
2022-09-04T03:59:10.063Z,22.30
2022-09-04T04:02:04.645Z,15.10
2022-09-04T04:04:35.492Z,11.90
2022-09-04T04:07:14.937Z,8.20
2022-09-04T04:10:07.586Z,6.50
2022-09-04T04:12:42.674Z,7.40
2022-09-04T04:15:38.674Z,9.00
2022-09-04T04:18:35.117Z,6.60
2022-09-04T04:21:21.224Z,4.80
2022-09-04T04:24:22.299Z,6.60
2022-09-04T04:27:14.923Z,15.50
2022-09-04T04:30:04.308Z,9.80
2022-09-04T04:33:13.240Z,14.60
2022-09-04T04:35:40.198Z,12.20
2022-09-04T04:38:46.271Z,9.20
2022-09-04T04:41:25.346Z,7.20
2022-09-04T04:44:11.619Z,5.80
2022-09-04T04:46:51.597Z,7.80
2022-09-04T04:49:57.630Z,7.10
2022-09-04T04:52:44.442Z,7.20
2022-09-04T04:55:16.657Z,9.50
2022-09-04T04:57:56.769Z,9.70
2022-09-04T05:00:46.247Z,5.90
2022-09-04T05:03:25.702Z,8.20
2022-09-04T05:06:02.649Z,5.90
2022-09-04T05:08:37.942Z,4.90
2022-09-04T05:11:23.236Z,5.10
2022-09-04T05:14:25.442Z,5.90
2022-09-04T05:17:04.591Z,6.50
2022-09-04T05:19:34.377Z,6.00
2022-09-04T05:22:09.252Z,5.80
2022-09-04T05:24:45.084Z,5.80
2022-09-04T05:27:22.793Z,5.10
2022-09-04T05:29:57.321Z,5.40
2022-09-04T05:32:42.505Z,7.00
2022-09-04T05:35:18.776Z,4.90
2022-09-04T05:37:56.172Z,6.60
2022-09-04T05:40:38.486Z,5.70
2022-09-04T05:43:17.518Z,6.40
2022-09-04T05:46:03.495Z,7.00
2022-09-04T05:48:52.802Z,5.60
2022-09-04T05:51:53.550Z,5.20
2022-09-04T05:57:26.172Z,6.20
2022-09-04T06:00:25.798Z,5.80
2022-09-04T06:02:58.811Z,5.10
2022-09-04T06:05:53.798Z,5.00
2022-09-04T06:08:58.545Z,6.00
2022-09-04T06:11:34.204Z,5.70
2022-09-04T06:14:23.177Z,5.20
2022-09-04T06:16:53.303Z,5.60
2022-09-04T06:19:20.262Z,6.90
2022-09-04T06:21:56.538Z,9.50
2022-09-04T06:24:46.432Z,6.00
2022-09-04T06:27:23.522Z,6.50
2022-09-04T06:30:00.107Z,5.10
2022-09-04T06:33:05.567Z,5.50
2022-09-04T06:35:52.281Z,5.90
2022-09-04T06:38:22.401Z,5.30
2022-09-04T06:40:55.712Z,5.20
2022-09-04T06:44:00.353Z,5.20
2022-09-04T06:46:39.091Z,5.90
2022-09-04T06:49:47.613Z,5.90
2022-09-04T06:52:22.754Z,6.10
2022-09-04T06:55:26.881Z,4.70
2022-09-04T06:58:05.651Z,3.80
2022-09-04T07:00:54.424Z,7.00
2022-09-04T07:03:33.822Z,4.90
2022-09-04T07:06:30.712Z,4.30
2022-09-04T07:09:32.038Z,5.40
2022-09-04T07:12:18.443Z,7.10
2022-09-04T07:15:23.688Z,5.30
2022-09-04T07:18:12.865Z,6.00
2022-09-04T07:21:20.471Z,5.80
2022-09-04T07:23:59.076Z,6.60
2022-09-04T07:29:41.232Z,4.70
2022-09-04T07:32:11.590Z,9.40
2022-09-04T07:35:00.586Z,4.80
2022-09-04T07:37:47.648Z,5.10
2022-09-04T07:40:42.043Z,4.00
2022-09-04T07:43:30.604Z,6.00
2022-09-04T07:46:23.095Z,5.10
2022-09-04T07:48:55.739Z,4.50
2022-09-04T07:51:34.637Z,4.70
2022-09-04T07:54:29.815Z,5.30
2022-09-04T07:57:22.745Z,5.20
2022-09-04T08:00:11.129Z,5.50
2022-09-04T08:03:01.811Z,4.90
2022-09-04T08:08:34.006Z,5.60
2022-09-04T08:11:08.539Z,3.50
2022-09-04T08:14:00.580Z,6.80
2022-09-04T08:16:33.882Z,2.90
2022-09-04T08:19:41.044Z,2.90
2022-09-04T08:22:12.633Z,4.50
2022-09-04T08:24:44.908Z,5.50
2022-09-04T08:27:30.496Z,3.90
2022-09-04T08:30:12.546Z,4.80
2022-09-04T08:32:48.471Z,2.90
2022-09-04T08:35:15.724Z,3.00
2022-09-04T08:37:52.403Z,3.90
2022-09-04T08:40:55.319Z,3.30
2022-09-04T08:43:27.787Z,7.30
2022-09-04T08:46:19.928Z,8.50
2022-09-04T08:49:15.335Z,4.40
2022-09-04T08:52:03.613Z,5.70
2022-09-04T08:54:42.615Z,3.70
2022-09-04T08:57:23.904Z,3.80
2022-09-04T09:00:00.380Z,3.50
2022-09-04T09:02:46.842Z,8.60
2022-09-04T09:05:55.874Z,5.10
2022-09-04T09:08:47.655Z,3.50
2022-09-04T09:11:45.634Z,4.70
2022-09-04T09:14:32.249Z,4.20
2022-09-04T09:17:18.783Z,2.90
2022-09-04T09:20:25.742Z,1.70
2022-09-04T09:23:15.998Z,5.10
2022-09-04T09:26:06.754Z,2.20
2022-09-04T09:28:58.789Z,4.00
2022-09-04T09:31:56.938Z,3.70
2022-09-04T09:35:03.445Z,2.90
2022-09-04T09:38:04.545Z,5.00
2022-09-04T09:40:59.201Z,4.00
2022-09-04T09:43:42.324Z,1.90
2022-09-04T09:46:28.283Z,4.40
2022-09-04T09:49:25.681Z,3.50
2022-09-04T09:52:29.392Z,6.70
2022-09-04T09:55:12.622Z,3.10
2022-09-04T09:58:19.508Z,1.80
2022-09-04T10:01:13.864Z,3.40
2022-09-04T10:03:59.700Z,3.50
2022-09-04T10:06:59.662Z,3.10
2022-09-04T10:09:30.162Z,5.90
2022-09-04T10:12:03.363Z,3.10
2022-09-04T10:14:50.588Z,2.60
2022-09-04T10:17:34.329Z,3.60
2022-09-04T10:20:29.175Z,5.20
2022-09-04T10:23:25.919Z,3.10
2022-09-04T10:26:09.787Z,1.90
2022-09-04T10:29:11.498Z,3.40
2022-09-04T10:31:54.927Z,2.40
2022-09-04T10:34:45.578Z,2.70
2022-09-04T10:37:43.390Z,4.60
2022-09-04T10:40:39.601Z,4.40
2022-09-04T10:43:46.611Z,2.60
2022-09-04T10:46:42.023Z,3.60
2022-09-04T10:49:18.288Z,5.70
2022-09-04T10:52:00.391Z,4.80
2022-09-04T10:54:32.768Z,2.40
2022-09-04T10:57:00.192Z,3.50
2022-09-04T11:00:04.373Z,5.70
2022-09-04T11:02:41.351Z,2.90
2022-09-04T11:05:21.178Z,4.10
2022-09-04T11:08:18.232Z,2.30
2022-09-04T11:10:48.763Z,3.30
2022-09-04T11:13:46.065Z,7.00
2022-09-04T11:16:47.776Z,3.60
2022-09-04T11:20:00.748Z,3.60
2022-09-04T11:22:35.163Z,3.10
2022-09-04T11:25:33.828Z,2.70
2022-09-04T11:28:40.467Z,2.40
2022-09-04T11:31:26.826Z,4.10
2022-09-04T11:33:54.362Z,3.00
2022-09-04T11:36:36.562Z,3.30
2022-09-04T11:39:32.928Z,4.30
2022-09-04T11:42:20.830Z,3.70
2022-09-04T11:44:47.779Z,1.70
2022-09-04T11:47:33.975Z,2.80
2022-09-04T11:50:28.970Z,3.20
2022-09-04T11:52:56.937Z,2.40
2022-09-04T11:55:42.521Z,3.70
2022-09-04T11:58:46.853Z,2.40
2022-09-04T12:01:47.683Z,4.70
2022-09-04T12:04:44.116Z,3.70
2022-09-04T12:07:23.354Z,1.90
2022-09-04T12:09:52.234Z,3.20
2022-09-04T12:12:23.038Z,2.00
2022-09-04T12:15:20.835Z,4.10
2022-09-04T12:18:01.502Z,2.80
2022-09-04T12:20:50.562Z,2.20
2022-09-04T12:23:36.361Z,1.70
2022-09-04T12:26:31.255Z,1.90
2022-09-04T12:29:17.955Z,3.30
2022-09-04T12:31:51.476Z,2.80
2022-09-04T12:34:33.765Z,4.10
2022-09-04T12:37:36.028Z,5.40
2022-09-04T12:40:06.003Z,2.20
2022-09-04T12:42:48.763Z,3.20
2022-09-04T12:45:22.116Z,2.20
2022-09-04T12:47:59.131Z,6.20
2022-09-04T12:50:38.268Z,2.30
2022-09-04T12:53:19.636Z,5.20
2022-09-04T12:56:03.361Z,2.00
2022-09-04T12:58:34.625Z,4.60
2022-09-04T13:01:33.888Z,6.20
2022-09-04T13:04:15.311Z,3.50
2022-09-04T13:06:52.786Z,4.20
2022-09-04T13:09:41.558Z,5.40
2022-09-04T13:12:43.116Z,4.00
2022-09-04T13:15:22.028Z,9.80
2022-09-04T13:17:58.602Z,3.20
2022-09-04T13:20:41.328Z,8.40
2022-09-04T13:23:37.046Z,8.70
2022-09-04T13:26:16.675Z,4.40
2022-09-04T13:28:52.524Z,2.90
2022-09-04T13:31:20.393Z,5.80
2022-09-04T13:34:03.233Z,7.30
2022-09-04T13:36:54.317Z,6.10
2022-09-04T13:39:24.284Z,7.40
2022-09-04T13:42:10.970Z,5.40
2022-09-04T13:44:40.841Z,4.00
2022-09-04T13:47:32.907Z,3.80
2022-09-04T13:50:10.196Z,3.20
2022-09-04T13:52:55.836Z,3.50
2022-09-04T13:55:28.273Z,5.30
2022-09-04T13:57:59.010Z,4.60
2022-09-04T14:00:28.526Z,5.40
2022-09-04T14:03:01.161Z,2.70
2022-09-04T14:05:28.861Z,3.40
2022-09-04T14:08:03.076Z,3.90
2022-09-04T14:11:17.861Z,3.50
2022-09-04T14:14:31.392Z,3.10
2022-09-04T14:17:00.223Z,3.80
2022-09-04T14:19:33.281Z,3.90
2022-09-04T14:22:07.365Z,3.30
2022-09-04T14:24:47.174Z,4.40
2022-09-04T14:27:50.031Z,3.00
2022-09-04T14:30:22.370Z,2.60
2022-09-04T14:33:19.405Z,4.60
2022-09-04T14:36:05.759Z,3.50
2022-09-04T14:39:14.634Z,3.60
2022-09-04T14:42:19.277Z,3.40
2022-09-04T14:44:49.640Z,3.50
2022-09-04T14:47:32.605Z,8.30
2022-09-04T14:50:01.565Z,8.20
2022-09-04T14:52:33.074Z,6.90
2022-09-04T14:55:02.607Z,5.00
2022-09-04T14:57:39.806Z,6.40
2022-09-04T15:00:20.081Z,6.30
2022-09-04T15:02:59.488Z,4.10
2022-09-04T15:05:34.520Z,2.30
2022-09-04T15:08:03.550Z,2.80
2022-09-04T15:10:36.312Z,3.80
2022-09-04T15:13:09.388Z,4.50
2022-09-04T15:15:39.292Z,4.30
2022-09-04T15:18:16.089Z,4.70
2022-09-04T15:21:18.350Z,4.70
2022-09-04T15:24:08.634Z,4.20
2022-09-04T15:26:42.329Z,6.30
2022-09-04T15:29:11.735Z,7.30
2022-09-04T15:31:42.158Z,5.30
2022-09-04T15:36:39.529Z,3.90
2022-09-04T15:39:11.245Z,2.80
2022-09-04T15:41:48.320Z,4.60
2022-09-04T15:44:15.926Z,4.20
2022-09-04T15:46:51.692Z,8.40
2022-09-04T15:50:12.829Z,4.30
2022-09-04T15:52:52.794Z,5.40
2022-09-04T15:55:32.279Z,12.00
2022-09-04T15:58:20.460Z,8.10
2022-09-04T16:01:09.689Z,4.10
2022-09-04T16:03:55.576Z,5.70
2022-09-04T16:06:30.112Z,11.60
2022-09-04T16:09:03.903Z,5.70
2022-09-04T16:11:43.207Z,5.80
2022-09-04T16:14:17.259Z,5.10
2022-09-04T16:16:49.721Z,4.40
2022-09-04T16:19:25.814Z,5.60
2022-09-04T16:22:24.364Z,18.70
2022-09-04T16:24:55.302Z,10.80
2022-09-04T16:27:24.549Z,10.30
2022-09-04T16:29:58.303Z,8.20
2022-09-04T16:32:27.635Z,10.20
2022-09-04T16:35:19.943Z,14.30
2022-09-04T16:38:02.143Z,8.60
2022-09-04T16:40:36.359Z,13.10
2022-09-04T16:43:34.237Z,14.80
2022-09-04T16:46:08.073Z,16.30
2022-09-04T16:48:42.552Z,9.00
2022-09-04T16:51:39.118Z,13.70
2022-09-04T16:54:16.727Z,12.00
2022-09-04T16:56:49.919Z,14.30
2022-09-04T16:59:39.592Z,15.00
2022-09-04T17:02:16.063Z,10.50
2022-09-04T17:04:45.871Z,8.60
2022-09-04T17:07:25.438Z,4.60
2022-09-04T17:10:03.386Z,7.10
2022-09-04T17:12:52.742Z,7.50
2022-09-04T17:15:53.745Z,9.10
2022-09-04T17:18:23.290Z,6.00
2022-09-04T17:25:40.607Z,4.40
2022-09-04T17:29:09.932Z,6.20
2022-09-04T17:40:35.593Z,5.70
2022-09-04T17:40:39.971Z,7.30
2022-09-04T17:40:51.887Z,5.60
2022-09-04T17:42:20.346Z,5.20
2022-09-04T17:45:17.060Z,6.40
2022-09-04T17:47:45.144Z,5.40
2022-09-04T17:50:20.291Z,7.70
2022-09-04T17:53:19.914Z,11.90
2022-09-04T17:56:06.752Z,8.60
2022-09-04T17:58:41.300Z,8.50
2022-09-04T18:01:14.108Z,8.20
2022-09-04T18:04:19.763Z,5.90
2022-09-04T18:06:52.199Z,4.60
2022-09-04T18:09:26.644Z,3.40
2022-09-04T18:12:11.409Z,7.10
2022-09-04T18:15:32.369Z,4.90
2022-09-04T18:17:52.360Z,5.00
2022-09-04T18:20:38.017Z,8.40
2022-09-04T18:23:26.812Z,7.20
2022-09-04T18:26:00.929Z,4.70
2022-09-04T18:29:26.402Z,3.10
2022-09-04T18:37:12.508Z,5.80
2022-09-04T18:37:17.608Z,4.60
2022-09-04T18:38:22.505Z,6.40
2022-09-04T18:43:37.348Z,4.00
2022-09-04T18:50:24.013Z,7.70
2022-09-04T18:50:39.228Z,6.30
2022-09-04T18:50:46.230Z,4.40
2022-09-04T18:52:51.769Z,6.00
2022-09-04T18:55:49.140Z,7.20
2022-09-04T18:58:45.179Z,5.20
2022-09-04T19:01:27.157Z,3.30
2022-09-04T19:04:29.567Z,7.50
2022-09-04T19:07:10.245Z,6.30
2022-09-04T19:10:03.824Z,5.10
2022-09-04T19:12:47.156Z,4.00
2022-09-04T19:15:36.617Z,5.50
2022-09-04T19:18:32.787Z,5.60
2022-09-04T19:21:08.797Z,4.20
2022-09-04T19:23:55.268Z,5.70
2022-09-04T19:26:48.368Z,7.00
2022-09-04T19:29:19.797Z,4.70
2022-09-04T19:31:57.657Z,6.00
2022-09-04T19:34:35.623Z,6.70
2022-09-04T19:37:41.638Z,3.70
2022-09-04T19:45:54.335Z,4.00
2022-09-04T19:46:11.849Z,6.30
2022-09-04T19:46:15.506Z,3.90
2022-09-04T19:50:50.606Z,2.70
2022-09-04T19:53:34.065Z,3.30
2022-09-04T19:55:23.907Z,3.90
2022-09-04T19:58:08.406Z,5.70
2022-09-04T20:00:43.552Z,4.40
2022-09-04T20:03:33.097Z,5.80
2022-09-04T20:06:20.521Z,2.90
2022-09-04T20:08:56.932Z,3.40
2022-09-04T20:11:34.704Z,6.80
2022-09-04T20:14:13.860Z,4.60
2022-09-04T20:16:48.821Z,4.20
2022-09-04T20:19:27.574Z,8.40
2022-09-04T20:22:10.583Z,4.20
2022-09-04T20:24:58.519Z,3.20
2022-09-04T20:27:37.355Z,7.70
2022-09-04T20:30:12.503Z,4.00
2022-09-04T20:32:54.113Z,4.00
2022-09-04T20:35:34.978Z,2.90
2022-09-04T20:38:41.364Z,3.40
2022-09-04T20:41:27.364Z,2.70
2022-09-04T20:44:09.006Z,4.10
2022-09-04T20:52:44.664Z,3.80
2022-09-04T20:52:50.229Z,4.10
2022-09-04T20:53:00.394Z,6.20
2022-09-04T20:55:39.005Z,4.40
2022-09-04T21:02:09.360Z,4.00
2022-09-04T21:03:22.273Z,6.90
2022-09-04T21:04:13.046Z,6.20
2022-09-04T21:06:52.301Z,3.30
2022-09-04T21:09:55.218Z,4.60
2022-09-04T21:12:31.139Z,4.20
2022-09-04T21:15:15.805Z,4.00
2022-09-04T21:18:14.331Z,6.70
2022-09-04T21:21:09.717Z,4.20
2022-09-04T21:24:02.833Z,3.20
2022-09-04T21:26:42.972Z,4.70
2022-09-04T21:29:30.169Z,3.90
2022-09-04T21:32:35.011Z,2.80
2022-09-04T21:35:31.762Z,3.90
2022-09-04T21:38:09.334Z,4.70
2022-09-04T21:40:51.344Z,3.10
2022-09-04T21:43:36.119Z,3.30
2022-09-04T21:46:12.892Z,2.30
2022-09-04T21:48:59.767Z,2.90
2022-09-04T21:51:41.579Z,2.40
2022-09-04T21:58:35.383Z,3.60
2022-09-04T22:02:36.344Z,2.80
2022-09-04T22:02:36.516Z,2.80
2022-09-04T22:05:17.492Z,3.20
2022-09-04T22:12:50.262Z,2.10
2022-09-04T22:13:44.178Z,3.30
2022-09-04T22:14:31.710Z,3.20
2022-09-04T22:17:05.957Z,2.60
2022-09-04T22:19:48.758Z,3.90
2022-09-04T22:22:35.058Z,2.90
2022-09-04T22:25:30.081Z,4.60
2022-09-04T22:28:08.931Z,5.80
2022-09-04T22:30:40.295Z,4.50
2022-09-04T22:33:13.663Z,4.70
2022-09-04T22:36:13.594Z,3.40
2022-09-04T22:39:08.387Z,5.30
2022-09-04T22:41:35.752Z,2.50
2022-09-04T22:44:12.249Z,4.00
2022-09-04T22:47:24.576Z,4.50
2022-09-04T22:50:06.756Z,2.80
2022-09-04T22:52:45.889Z,3.50
2022-09-04T22:55:40.409Z,3.40
2022-09-04T22:58:47.217Z,5.30
2022-09-04T23:01:46.214Z,2.80
2022-09-04T23:04:31.768Z,3.90
2022-09-04T23:13:09.468Z,4.70
2022-09-04T23:13:50.838Z,7.60
2022-09-04T23:13:57.712Z,6.00
2022-09-04T23:16:08.074Z,6.10
2022-09-04T23:20:40.009Z,4.10
2022-09-04T23:26:41.494Z,5.20
2022-09-04T23:26:45.850Z,6.40
2022-09-04T23:28:15.471Z,3.70
2022-09-04T23:31:29.429Z,4.10
2022-09-04T23:36:58.466Z,3.40
2022-09-04T23:39:57.984Z,4.80
2022-09-04T23:42:37.230Z,4.10
2022-09-04T23:45:28.653Z,3.10
2022-09-04T23:48:31.143Z,4.70
2022-09-04T23:51:32.910Z,2.20
2022-09-04T23:54:25.055Z,3.00
2022-09-04T23:57:26.728Z,3.40
